This is the latest recevied weather packets stored in our database for station/object KC9NPJ-13. If no packets are shown the sender has not sent any weather packets the latest 1 day(s).
| Time | Temp. | Humidity | Pressure | Rain* | Wind** | Luminosity | Snow |
|---|---|---|---|---|---|---|---|
| 1778001240 | 11.11° C | 91% | 1010 hPa | 0 mm | 0 m/s | - | - |
| 1778000940 | 11.11° C | 92% | 1010 hPa | 0 mm | 0 m/s | - | - |
| 1778000640 | 11.11° C | 92% | 1009.9 hPa | 0 mm | 0 m/s | - | - |
| 1778000340 | 11.11° C | 91% | 1009.8 hPa | 0 mm | 0 m/s | - | - |
| 1778000040 | 11.11° C | 91% | 1009.8 hPa | 0.25 mm | 0 m/s | - | - |
| 1777999740 | 11.11° C | 92% | 1009.8 hPa | 0.25 mm | 0 m/s | - | - |
| 1777999440 | 11.11° C | 91% | 1009.9 hPa | 0.25 mm | 0 m/s | - | - |
| 1777999140 | 11.11° C | 91% | 1010.1 hPa | 0.25 mm | 0 m/s | - | - |
| 1777998841 | 11.11° C | 91% | 1009.9 hPa | 0.25 mm | 0 m/s | - | - |
| 1777998540 | 11.11° C | 91% | 1010 hPa | 0.25 mm | 0 m/s | - | - |
| 1777998240 | 11.11° C | 91% | 1009.8 hPa | 0.25 mm | 0.45 m/s, 17° | - | - |
| 1777997941 | 11.11° C | 90% | 1009.7 hPa | 0.25 mm | 0.89 m/s, 123° | - | - |
| 1777997641 | 11.11° C | 91% | 1009.6 hPa | 0.25 mm | 0.45 m/s, 109° | - | - |
| 1777997341 | 11.11° C | 91% | 1009.6 hPa | 0.25 mm | 0.89 m/s, 73° | - | - |
| 1777997041 | 11.11° C | 91% | 1009.5 hPa | 0.25 mm | 0.89 m/s, 106° | - | - |
| 1777996741 | 11.11° C | 91% | 1009.3 hPa | 0.51 mm | 0.45 m/s, 128° | - | - |
| 1777996441 | 11.11° C | 92% | 1009.2 hPa | 0.25 mm | 0.45 m/s, 131° | - | - |
| 1777996141 | 11.11° C | 92% | 1009.1 hPa | 0.51 mm | 0.89 m/s, 107° | - | - |
| 1777995841 | 11.11° C | 92% | 1009 hPa | 0.51 mm | 0.45 m/s, 121° | - | - |
| 1777995541 | 11.11° C | 92% | 1008.8 hPa | 0.51 mm | 0.45 m/s, 348° | - | - |
| 1777995241 | 11.11° C | 92% | 1008.7 hPa | 0.76 mm | 0.89 m/s, 76° | - | - |
| 1777994941 | 11.67° C | 91% | 1008.6 hPa | 1.52 mm | 0.89 m/s, 109° | - | - |
| 1777994641 | 11.67° C | 91% | 1008.7 hPa | 2.29 mm | 0.89 m/s, 82° | - | - |
| 1777994341 | 11.67° C | 91% | 1008.8 hPa | 3.3 mm | 0.89 m/s, 341° | - | - |
| 1777994041 | 12.22° C | 92% | 1009.2 hPa | 4.06 mm | 0.89 m/s, 7° | - | - |
* Rain latest hour (hover to see other rain measurements)
** Current wind speed in m/s (hover to see current wind gust speed)